createdAt,value
2022-09-18T00:00:26.807Z,0.00
2022-09-18T00:01:27.163Z,0.00
2022-09-18T00:02:27.403Z,0.00
2022-09-18T00:03:27.638Z,0.00
2022-09-18T00:04:27.859Z,0.00
2022-09-18T00:05:28.250Z,0.00
2022-09-18T00:06:28.590Z,0.00
2022-09-18T00:07:28.829Z,0.00
2022-09-18T00:08:29.171Z,0.00
2022-09-18T00:09:29.421Z,0.00
2022-09-18T00:10:29.760Z,0.00
2022-09-18T00:11:29.955Z,0.00
2022-09-18T00:12:30.268Z,0.00
2022-09-18T00:13:30.540Z,0.00
2022-09-18T00:14:30.803Z,0.00
2022-09-18T00:15:31.024Z,0.00
2022-09-18T00:16:31.506Z,0.00
2022-09-18T00:17:31.716Z,0.00
2022-09-18T00:18:31.974Z,0.00
2022-09-18T00:19:32.215Z,0.00
2022-09-18T00:20:32.465Z,0.00
2022-09-18T00:21:32.679Z,0.00
2022-09-18T00:22:33.013Z,0.00
2022-09-18T00:23:33.378Z,0.00
2022-09-18T00:24:33.644Z,0.00
2022-09-18T00:25:33.836Z,0.00
2022-09-18T00:26:34.198Z,0.00
2022-09-18T00:27:34.476Z,0.00
2022-09-18T00:28:34.736Z,0.00
2022-09-18T00:29:34.958Z,0.00
2022-09-18T00:30:35.299Z,0.00
2022-09-18T00:31:35.795Z,0.00
2022-09-18T00:32:35.909Z,0.00
2022-09-18T00:33:36.272Z,0.00
2022-09-18T00:34:36.499Z,0.00
2022-09-18T00:35:36.830Z,0.00
2022-09-18T00:36:37.222Z,0.00
2022-09-18T00:37:37.502Z,0.00
2022-09-18T00:38:37.731Z,0.00
2022-09-18T00:39:37.975Z,0.00
2022-09-18T00:40:38.220Z,0.00
2022-09-18T00:41:38.443Z,0.00
2022-09-18T00:42:38.733Z,0.00
2022-09-18T00:43:38.940Z,0.00
2022-09-18T00:44:39.314Z,0.00
2022-09-18T00:45:39.545Z,0.00
2022-09-18T00:46:39.942Z,0.00
2022-09-18T00:47:40.023Z,0.00
2022-09-18T00:48:40.372Z,0.00
2022-09-18T00:49:40.721Z,0.00
2022-09-18T00:50:41.085Z,0.00
2022-09-18T00:51:41.344Z,0.00
2022-09-18T00:52:41.552Z,0.00
2022-09-18T00:53:41.900Z,0.00
2022-09-18T00:54:42.245Z,0.00
2022-09-18T00:55:42.494Z,0.00
2022-09-18T00:56:42.738Z,0.00
2022-09-18T00:57:42.966Z,0.00
2022-09-18T00:58:43.314Z,0.00
2022-09-18T00:59:43.669Z,0.00
2022-09-18T01:00:43.969Z,0.00
2022-09-18T01:01:44.314Z,0.00
2022-09-18T01:02:44.508Z,0.00
2022-09-18T01:03:44.731Z,0.00
2022-09-18T01:04:45.078Z,0.00
2022-09-18T01:05:45.439Z,0.00
2022-09-18T01:06:45.689Z,0.00
2022-09-18T01:07:45.926Z,0.00
2022-09-18T01:08:46.278Z,0.00
2022-09-18T01:09:46.512Z,0.00
2022-09-18T01:10:46.769Z,0.00
2022-09-18T01:11:47.190Z,0.00
2022-09-18T01:12:47.478Z,0.00
2022-09-18T01:13:47.689Z,0.00
2022-09-18T01:14:48.050Z,0.00
2022-09-18T01:15:48.304Z,0.00
2022-09-18T01:16:48.589Z,0.00
2022-09-18T01:17:48.812Z,0.00
2022-09-18T01:18:49.173Z,0.00
2022-09-18T01:19:49.414Z,0.00
2022-09-18T01:20:49.631Z,0.00
2022-09-18T01:21:49.982Z,0.00
2022-09-18T01:22:50.342Z,0.00
2022-09-18T01:23:50.583Z,0.00
2022-09-18T01:24:50.832Z,0.00
2022-09-18T01:25:51.062Z,0.00
2022-09-18T01:26:51.442Z,0.00
2022-09-18T01:27:51.649Z,0.00
2022-09-18T01:28:52.012Z,0.00
2022-09-18T01:29:52.224Z,0.00
2022-09-18T01:30:52.619Z,0.00
2022-09-18T01:31:52.866Z,0.00
2022-09-18T01:32:53.105Z,0.00
2022-09-18T01:33:53.376Z,0.00
2022-09-18T01:34:53.623Z,0.00
2022-09-18T01:35:53.853Z,0.00
2022-09-18T01:36:54.126Z,0.00
2022-09-18T01:37:54.370Z,0.00
2022-09-18T01:38:54.595Z,0.00
2022-09-18T01:39:54.998Z,0.00
2022-09-18T01:40:55.243Z,0.00
2022-09-18T01:41:55.457Z,0.00
2022-09-18T01:42:55.707Z,0.00
2022-09-18T01:43:55.963Z,0.00
2022-09-18T01:44:56.179Z,0.00
2022-09-18T01:45:56.547Z,0.00
2022-09-18T01:46:56.801Z,0.00
2022-09-18T01:47:57.051Z,0.00
2022-09-18T01:48:57.278Z,0.00
2022-09-18T01:49:57.639Z,0.00
2022-09-18T01:50:57.859Z,0.00
2022-09-18T01:51:58.259Z,0.00
2022-09-18T01:52:58.493Z,0.00
2022-09-18T01:53:58.903Z,0.00
2022-09-18T01:54:59.160Z,0.00
2022-09-18T01:55:59.411Z,0.00
2022-09-18T01:56:59.680Z,0.00
2022-09-18T01:57:59.943Z,0.00
2022-09-18T01:59:00.163Z,0.00
2022-09-18T02:00:00.575Z,0.00
2022-09-18T02:01:00.781Z,0.00
2022-09-18T02:02:01.421Z,0.00
2022-09-18T02:03:01.503Z,0.00
2022-09-18T02:04:01.721Z,0.00
2022-09-18T02:05:02.054Z,0.00
2022-09-18T02:06:02.387Z,0.00
2022-09-18T02:07:02.762Z,0.00
2022-09-18T02:08:03.005Z,0.00
2022-09-18T02:09:03.270Z,0.00
2022-09-18T02:10:03.476Z,0.00
2022-09-18T02:11:03.825Z,0.00
2022-09-18T02:12:04.085Z,0.00
2022-09-18T02:13:04.285Z,0.00
2022-09-18T02:14:04.664Z,0.00
2022-09-18T02:15:04.887Z,0.00
2022-09-18T02:16:05.260Z,0.00
2022-09-18T02:17:05.509Z,0.00
2022-09-18T02:18:05.768Z,0.00
2022-09-18T02:19:06.029Z,0.00
2022-09-18T02:20:06.267Z,0.00
2022-09-18T02:21:06.512Z,0.00
2022-09-18T02:22:06.797Z,0.00
2022-09-18T02:23:07.050Z,0.00
2022-09-18T02:24:07.240Z,0.00
2022-09-18T02:25:07.581Z,0.00
2022-09-18T02:26:07.932Z,0.00
2022-09-18T02:27:08.159Z,0.00
2022-09-18T02:28:08.383Z,0.00
2022-09-18T02:29:08.739Z,0.00
2022-09-18T02:30:08.999Z,0.00
2022-09-18T02:31:09.293Z,0.00
2022-09-18T02:32:09.703Z,0.00
2022-09-18T02:33:09.755Z,0.00
2022-09-18T02:34:10.126Z,0.00
2022-09-18T02:35:10.350Z,0.00
2022-09-18T02:36:10.751Z,0.00
2022-09-18T02:37:11.038Z,0.00
2022-09-18T02:38:11.229Z,0.00
2022-09-18T02:39:11.570Z,0.00
2022-09-18T02:40:11.950Z,0.00
2022-09-18T02:41:12.220Z,0.00
2022-09-18T02:42:12.458Z,0.00
2022-09-18T02:43:12.806Z,0.00
2022-09-18T02:44:13.025Z,0.00
2022-09-18T02:45:13.275Z,0.00
2022-09-18T02:46:13.509Z,0.00
2022-09-18T02:47:13.835Z,0.00
2022-09-18T02:48:14.199Z,0.00
2022-09-18T02:49:14.387Z,0.00
2022-09-18T02:50:14.754Z,0.00
2022-09-18T02:51:14.964Z,0.00
2022-09-18T02:52:15.325Z,0.00
2022-09-18T02:53:15.549Z,0.00
2022-09-18T02:54:15.940Z,0.00
2022-09-18T02:55:16.224Z,0.00
2022-09-18T02:56:16.459Z,0.00
2022-09-18T02:57:16.669Z,0.00
2022-09-18T02:58:17.019Z,0.00
2022-09-18T02:59:17.265Z,0.00
2022-09-18T03:00:17.487Z,0.00
2022-09-18T03:01:17.882Z,0.00
2022-09-18T03:02:18.177Z,0.00
2022-09-18T03:03:18.368Z,0.00
2022-09-18T03:04:18.559Z,0.00
2022-09-18T03:05:18.969Z,0.00
2022-09-18T03:06:19.191Z,0.00
2022-09-18T03:07:19.559Z,0.00
2022-09-18T03:08:19.804Z,0.00
2022-09-18T03:09:20.060Z,0.00
2022-09-18T03:10:20.312Z,0.00
2022-09-18T03:11:20.547Z,0.00
2022-09-18T03:12:20.788Z,0.00
2022-09-18T03:13:21.070Z,0.00
2022-09-18T03:14:21.339Z,0.00
2022-09-18T03:15:21.580Z,0.00
2022-09-18T03:16:22.064Z,0.00
2022-09-18T03:17:22.243Z,0.00
2022-09-18T03:18:22.610Z,0.00
2022-09-18T03:19:22.816Z,0.00
2022-09-18T03:20:23.171Z,0.00
2022-09-18T03:21:23.546Z,0.00
2022-09-18T03:22:23.774Z,0.00
2022-09-18T03:23:24.123Z,0.00
2022-09-18T03:24:24.496Z,0.00
2022-09-18T03:25:24.775Z,0.00
2022-09-18T03:26:25.033Z,0.00
2022-09-18T03:27:25.299Z,0.00
2022-09-18T03:28:25.547Z,0.00
2022-09-18T03:29:25.767Z,0.00
2022-09-18T03:30:26.136Z,0.00
2022-09-18T03:31:26.579Z,0.00
2022-09-18T03:32:26.712Z,0.00
2022-09-18T03:33:26.911Z,0.00
2022-09-18T03:34:27.233Z,0.00
2022-09-18T03:35:27.600Z,0.00
2022-09-18T03:36:27.802Z,0.00
2022-09-18T03:37:28.139Z,0.00
2022-09-18T03:38:28.508Z,0.00
2022-09-18T03:39:28.735Z,0.00
2022-09-18T03:40:29.217Z,0.00
2022-09-18T03:41:29.452Z,0.00
2022-09-18T03:42:29.629Z,0.00
2022-09-18T03:43:29.972Z,0.00
2022-09-18T03:44:30.329Z,0.00
2022-09-18T03:45:30.540Z,0.00
2022-09-18T03:46:31.019Z,0.00
2022-09-18T03:47:36.156Z,0.00
2022-09-18T03:48:32.494Z,0.00
2022-09-18T03:49:31.853Z,0.00
2022-09-18T03:50:32.158Z,0.00
2022-09-18T03:51:32.899Z,0.00
2022-09-18T03:52:32.662Z,0.00
2022-09-18T03:53:33.017Z,0.00
2022-09-18T03:54:33.253Z,0.00
2022-09-18T03:55:33.551Z,0.00
2022-09-18T03:56:33.746Z,0.00
2022-09-18T03:57:34.083Z,0.00
2022-09-18T03:58:34.429Z,0.00
2022-09-18T03:59:34.763Z,0.00
2022-09-18T04:00:35.102Z,0.00
2022-09-18T04:01:35.506Z,0.00
2022-09-18T04:02:35.782Z,0.00
2022-09-18T04:03:35.999Z,0.00
2022-09-18T04:04:36.193Z,0.00
2022-09-18T04:05:36.525Z,0.00
2022-09-18T04:06:36.886Z,0.00
2022-09-18T04:07:37.095Z,0.00
2022-09-18T04:08:37.553Z,0.00
2022-09-18T04:09:39.042Z,0.00
2022-09-18T04:10:38.216Z,0.00
2022-09-18T04:11:38.411Z,0.00
2022-09-18T04:12:38.626Z,0.00
2022-09-18T04:13:39.048Z,0.00
2022-09-18T04:14:39.305Z,0.00
2022-09-18T04:15:39.646Z,0.00
2022-09-18T04:16:39.900Z,0.00
2022-09-18T04:17:40.107Z,0.00
2022-09-18T04:18:40.509Z,0.00
2022-09-18T04:19:40.818Z,4.00
2022-09-18T04:20:41.049Z,4.00
2022-09-18T04:21:41.373Z,4.00
2022-09-18T04:22:41.721Z,4.00
2022-09-18T04:23:42.057Z,4.00
2022-09-18T04:24:42.387Z,4.00
2022-09-18T04:25:42.731Z,4.00
2022-09-18T04:26:43.061Z,8.00
2022-09-18T04:27:43.378Z,8.00
2022-09-18T04:28:43.721Z,8.00
2022-09-18T04:29:44.061Z,8.00
2022-09-18T04:30:44.423Z,12.00
2022-09-18T04:31:44.744Z,16.00
2022-09-18T04:32:45.024Z,20.00
2022-09-18T04:33:45.262Z,20.00
2022-09-18T04:34:45.491Z,20.00
2022-09-18T04:35:45.710Z,20.00
2022-09-18T04:36:46.062Z,24.00
2022-09-18T04:37:46.283Z,32.00
2022-09-18T04:38:46.503Z,32.00
2022-09-18T04:39:46.870Z,40.00
2022-09-18T04:40:47.104Z,40.00
2022-09-18T04:41:47.536Z,52.00
2022-09-18T04:42:47.774Z,48.00
2022-09-18T04:43:48.037Z,44.00
2022-09-18T04:44:48.366Z,56.00
2022-09-18T04:45:48.596Z,56.00
2022-09-18T04:46:48.988Z,52.00
2022-09-18T04:47:49.196Z,64.00
2022-09-18T04:48:49.589Z,76.00
2022-09-18T04:49:49.830Z,92.00
2022-09-18T04:50:51.039Z,108.00
2022-09-18T04:51:50.367Z,124.00
2022-09-18T04:52:50.606Z,144.00
2022-09-18T04:53:50.849Z,164.00
2022-09-18T04:54:51.107Z,180.00
2022-09-18T04:55:51.396Z,192.00
2022-09-18T04:56:51.683Z,200.00
2022-09-18T04:57:54.557Z,228.00
2022-09-18T04:58:52.160Z,252.00
2022-09-18T04:59:52.480Z,276.00
2022-09-18T05:00:52.861Z,268.00
2022-09-18T05:01:53.183Z,272.00
2022-09-18T05:02:53.480Z,256.00
2022-09-18T05:03:53.742Z,320.00
2022-09-18T05:04:53.992Z,368.00
2022-09-18T05:05:54.251Z,352.00
2022-09-18T05:06:54.500Z,432.00
2022-09-18T05:07:54.734Z,460.00
2022-09-18T05:08:54.992Z,464.00
2022-09-18T05:09:55.240Z,492.00
2022-09-18T05:10:55.544Z,508.00
2022-09-18T05:11:55.779Z,532.00
2022-09-18T05:12:56.074Z,532.00
2022-09-18T05:13:56.367Z,540.00
2022-09-18T05:14:56.608Z,528.00
2022-09-18T05:15:56.909Z,516.00
2022-09-18T05:16:57.164Z,488.00
2022-09-18T05:17:57.447Z,476.00
2022-09-18T05:18:57.784Z,472.00
2022-09-18T05:19:58.058Z,464.00
2022-09-18T05:20:58.532Z,460.00
2022-09-18T05:21:58.697Z,504.00
2022-09-18T05:22:58.946Z,528.00
2022-09-18T05:23:59.235Z,556.00
2022-09-18T05:24:59.561Z,600.00
2022-09-18T05:25:59.897Z,640.00
2022-09-18T05:27:00.197Z,668.00
2022-09-18T05:28:00.501Z,624.00
2022-09-18T05:29:00.757Z,556.00
2022-09-18T05:30:01.036Z,588.00
2022-09-18T05:31:01.378Z,724.00
2022-09-18T05:32:01.552Z,700.00
2022-09-18T05:33:01.871Z,604.00
2022-09-18T05:34:02.129Z,776.00
2022-09-18T05:35:02.405Z,752.00
2022-09-18T05:36:02.678Z,652.00
2022-09-18T05:37:02.952Z,788.00
2022-09-18T05:38:03.215Z,864.00
2022-09-18T05:39:03.588Z,840.00
2022-09-18T05:40:03.798Z,784.00
2022-09-18T05:41:04.134Z,860.00
2022-09-18T05:42:04.303Z,792.00
2022-09-18T05:43:04.600Z,944.00
2022-09-18T05:44:04.943Z,960.00
2022-09-18T05:45:05.172Z,964.00
2022-09-18T05:46:05.554Z,876.00
2022-09-18T05:47:05.812Z,828.00
2022-09-18T05:48:06.062Z,828.00
2022-09-18T05:49:06.392Z,892.00
2022-09-18T05:50:06.663Z,748.00
2022-09-18T05:51:06.979Z,1064.00
2022-09-18T05:52:07.268Z,1200.00
2022-09-18T05:53:07.569Z,1212.00
2022-09-18T05:54:07.882Z,1236.00
2022-09-18T05:55:08.245Z,1304.00
2022-09-18T05:56:08.396Z,1312.00
2022-09-18T05:57:08.853Z,1268.00
2022-09-18T05:58:09.015Z,1336.00
2022-09-18T05:59:09.274Z,1392.00
2022-09-18T06:00:09.524Z,1436.00
2022-09-18T06:01:09.826Z,1452.00
2022-09-18T06:02:10.193Z,1452.00
2022-09-18T06:03:10.393Z,1568.00
2022-09-18T06:04:10.646Z,1456.00
2022-09-18T06:05:10.917Z,1580.00
2022-09-18T06:06:11.298Z,1448.00
2022-09-18T06:07:11.425Z,1436.00
2022-09-18T06:08:11.676Z,1632.00
2022-09-18T06:09:11.944Z,1552.00
2022-09-18T06:10:12.217Z,1364.00
2022-09-18T06:11:12.509Z,1488.00
2022-09-18T06:12:12.818Z,1472.00
2022-09-18T06:13:13.136Z,1340.00
2022-09-18T06:14:13.399Z,1376.00
2022-09-18T06:15:14.139Z,1520.00
2022-09-18T06:16:14.024Z,1944.00
2022-09-18T06:17:14.310Z,1712.00
2022-09-18T06:18:14.582Z,2320.00
2022-09-18T06:19:14.858Z,2408.00
2022-09-18T06:20:15.108Z,2784.00
2022-09-18T06:21:15.393Z,2884.00
2022-09-18T06:22:15.651Z,2496.00
2022-09-18T06:23:15.928Z,2532.00
2022-09-18T06:24:16.190Z,2844.00
2022-09-18T06:25:16.632Z,3060.00
2022-09-18T06:26:16.741Z,2376.00
2022-09-18T06:27:17.011Z,2924.00
2022-09-18T06:28:17.370Z,2968.00
2022-09-18T06:29:17.511Z,3056.00
2022-09-18T06:30:17.793Z,3836.00
2022-09-18T06:31:18.141Z,3136.00
2022-09-18T06:32:18.380Z,3272.00
2022-09-18T06:33:18.685Z,3452.00
2022-09-18T06:34:18.943Z,3052.00
2022-09-18T06:35:20.206Z,3176.00
2022-09-18T06:36:19.545Z,4204.00
2022-09-18T06:37:19.802Z,4052.00
2022-09-18T06:38:20.121Z,5232.00
2022-09-18T06:39:20.334Z,3772.00
2022-09-18T06:40:20.637Z,2544.00
2022-09-18T06:41:20.917Z,2792.00
2022-09-18T06:42:21.175Z,3320.00
2022-09-18T06:43:21.426Z,4104.00
2022-09-18T06:44:21.687Z,3428.00
2022-09-18T06:45:22.026Z,3808.00
2022-09-18T06:46:22.317Z,3400.00
2022-09-18T06:47:22.615Z,3456.00
2022-09-18T06:48:22.878Z,3420.00
2022-09-18T06:49:23.156Z,3380.00
2022-09-18T06:50:23.412Z,2860.00
2022-09-18T06:51:23.721Z,2420.00
2022-09-18T06:52:23.909Z,2856.00
2022-09-18T06:53:24.170Z,2400.00
2022-09-18T06:54:24.410Z,3264.00
2022-09-18T06:55:24.676Z,3308.00
2022-09-18T06:56:24.997Z,2808.00
2022-09-18T06:57:25.230Z,4592.00
2022-09-18T06:58:25.509Z,3368.00
2022-09-18T06:59:25.768Z,4268.00
2022-09-18T07:00:26.973Z,3680.00
2022-09-18T07:01:26.407Z,3352.00
2022-09-18T07:02:26.542Z,3696.00
2022-09-18T07:03:26.812Z,3444.00
2022-09-18T07:04:27.266Z,3328.00
2022-09-18T07:05:27.364Z,3664.00
2022-09-18T07:06:28.416Z,4856.00
2022-09-18T07:07:27.963Z,3548.00
2022-09-18T07:08:28.227Z,3620.00
2022-09-18T07:09:28.494Z,4188.00
2022-09-18T07:10:29.515Z,3188.00
2022-09-18T07:11:31.424Z,4700.00
2022-09-18T07:12:30.014Z,4344.00
2022-09-18T07:13:29.799Z,4436.00
2022-09-18T07:14:29.719Z,4492.00
2022-09-18T07:15:29.999Z,3788.00
2022-09-18T07:16:31.029Z,4168.00
2022-09-18T07:17:31.243Z,5804.00
2022-09-18T07:18:31.517Z,6388.00
2022-09-18T07:19:31.729Z,4672.00
2022-09-18T07:20:32.227Z,5848.00
2022-09-18T07:21:31.867Z,7048.00
2022-09-18T07:22:32.550Z,7016.00
2022-09-18T07:23:33.033Z,5764.00
2022-09-18T07:24:33.208Z,5836.00
2022-09-18T07:25:32.726Z,4668.00
2022-09-18T07:26:32.975Z,3240.00
2022-09-18T07:27:33.250Z,4848.00
2022-09-18T07:28:33.537Z,5732.00
2022-09-18T07:29:33.790Z,3352.00
2022-09-18T07:30:34.091Z,3596.00
2022-09-18T07:31:34.394Z,3008.00
2022-09-18T07:32:34.642Z,3852.00
2022-09-18T07:33:34.941Z,3368.00
2022-09-18T07:34:35.209Z,3024.00
2022-09-18T07:35:35.480Z,3344.00
2022-09-18T07:36:35.752Z,2852.00
2022-09-18T07:37:36.004Z,2924.00
2022-09-18T07:38:36.252Z,2708.00
2022-09-18T07:39:36.588Z,2676.00
2022-09-18T07:40:36.919Z,2604.00
2022-09-18T07:41:37.173Z,2752.00
2022-09-18T07:42:37.528Z,3212.00
2022-09-18T07:43:37.709Z,2916.00
2022-09-18T07:44:37.984Z,3108.00
2022-09-18T07:45:38.302Z,5192.00
2022-09-18T07:46:38.602Z,3532.00
2022-09-18T07:47:38.849Z,3504.00
2022-09-18T07:48:39.115Z,3060.00
2022-09-18T07:49:39.416Z,3824.00
2022-09-18T07:50:39.737Z,5512.00
2022-09-18T07:51:40.043Z,5132.00
2022-09-18T07:52:40.380Z,4060.00
2022-09-18T07:53:40.675Z,5696.00
2022-09-18T07:54:41.756Z,7040.00
2022-09-18T07:55:41.258Z,5856.00
2022-09-18T07:56:46.063Z,5960.00
2022-09-18T07:57:42.848Z,5740.00
2022-09-18T07:58:42.150Z,5720.00
2022-09-18T07:59:42.458Z,4120.00
2022-09-18T08:00:50.395Z,4088.00
2022-09-18T08:01:43.118Z,4048.00
2022-09-18T08:02:43.449Z,3864.00
2022-09-18T08:03:44.539Z,5324.00
2022-09-18T08:04:43.971Z,5600.00
2022-09-18T08:05:44.232Z,5584.00
2022-09-18T08:06:44.492Z,6724.00
2022-09-18T08:07:44.755Z,8072.00
2022-09-18T08:08:46.732Z,6636.00
2022-09-18T08:09:45.480Z,6376.00
2022-09-18T08:10:45.544Z,6264.00
2022-09-18T08:11:45.807Z,4440.00
2022-09-18T08:12:46.062Z,4156.00
2022-09-18T08:13:46.345Z,5368.00
2022-09-18T08:14:46.615Z,5360.00
2022-09-18T08:15:46.997Z,6288.00
2022-09-18T08:16:47.134Z,7592.00
2022-09-18T08:17:47.413Z,6884.00
2022-09-18T08:18:47.668Z,6112.00
2022-09-18T08:19:47.976Z,4668.00
2022-09-18T08:20:48.238Z,4100.00
2022-09-18T08:21:48.488Z,4800.00
2022-09-18T08:22:48.748Z,5112.00
2022-09-18T08:23:49.012Z,5880.00
2022-09-18T08:24:49.277Z,5576.00
2022-09-18T08:25:49.526Z,5388.00
2022-09-18T08:26:49.801Z,4480.00
2022-09-18T08:27:50.059Z,5892.00
2022-09-18T08:28:50.339Z,4464.00
2022-09-18T08:29:50.621Z,4860.00
2022-09-18T08:30:50.899Z,3768.00
2022-09-18T08:31:51.249Z,4820.00
2022-09-18T08:32:51.391Z,5784.00
2022-09-18T08:33:51.664Z,5192.00
2022-09-18T08:34:51.933Z,5016.00
2022-09-18T08:35:52.199Z,5868.00
2022-09-18T08:36:52.453Z,4984.00
2022-09-18T08:37:52.714Z,5324.00
2022-09-18T08:38:52.963Z,6880.00
2022-09-18T08:39:53.386Z,3624.00
2022-09-18T08:40:53.546Z,3840.00
2022-09-18T08:41:53.829Z,3312.00
2022-09-18T08:42:54.104Z,3320.00
2022-09-18T08:43:54.354Z,3820.00
2022-09-18T08:44:54.639Z,3248.00
2022-09-18T08:45:54.902Z,4108.00
2022-09-18T08:46:55.191Z,3848.00
2022-09-18T08:47:55.436Z,3752.00
2022-09-18T08:48:55.697Z,3716.00
2022-09-18T08:49:55.998Z,5600.00
2022-09-18T08:50:56.254Z,4900.00
2022-09-18T08:51:56.545Z,5804.00
2022-09-18T08:52:56.789Z,5668.00
2022-09-18T08:53:57.050Z,7400.00
2022-09-18T08:54:57.328Z,7448.00
2022-09-18T08:55:57.576Z,7352.00
2022-09-18T08:56:57.845Z,6400.00
2022-09-18T08:57:58.109Z,6092.00
2022-09-18T08:58:58.376Z,7488.00
2022-09-18T08:59:58.628Z,7292.00
2022-09-18T09:00:58.931Z,6112.00
2022-09-18T09:01:59.292Z,5932.00
2022-09-18T09:02:59.531Z,7428.00
2022-09-18T09:03:59.782Z,6528.00
2022-09-18T09:05:00.039Z,7936.00
2022-09-18T09:06:00.313Z,7208.00
2022-09-18T09:07:00.574Z,7844.00
2022-09-18T09:08:00.821Z,6588.00
2022-09-18T09:09:01.132Z,6488.00
2022-09-18T09:10:01.309Z,7620.00
2022-09-18T09:11:01.575Z,6256.00
2022-09-18T09:12:01.872Z,6540.00
2022-09-18T09:13:02.173Z,6380.00
2022-09-18T09:14:02.414Z,4832.00
2022-09-18T09:15:02.677Z,4788.00
2022-09-18T09:16:03.798Z,6536.00
2022-09-18T09:17:03.197Z,6776.00
2022-09-18T09:18:03.508Z,5872.00
2022-09-18T09:19:03.801Z,5124.00
2022-09-18T09:20:04.551Z,6112.00
2022-09-18T09:21:07.609Z,5088.00
2022-09-18T09:22:05.648Z,3140.00
2022-09-18T09:23:04.949Z,3464.00
2022-09-18T09:24:05.197Z,2576.00
2022-09-18T09:25:05.527Z,2340.00
2022-09-18T09:26:05.788Z,3536.00
2022-09-18T09:27:06.078Z,2776.00
2022-09-18T09:28:06.348Z,3400.00
2022-09-18T09:29:06.625Z,3656.00
2022-09-18T09:30:06.928Z,4648.00
2022-09-18T09:31:07.242Z,6076.00
2022-09-18T09:32:07.586Z,4476.00
2022-09-18T09:33:07.864Z,3496.00
2022-09-18T09:34:08.152Z,3052.00
2022-09-18T09:35:08.577Z,3048.00
2022-09-18T09:36:08.701Z,3492.00
2022-09-18T09:37:08.978Z,4352.00
2022-09-18T09:38:09.239Z,4260.00
2022-09-18T09:39:09.506Z,6976.00
2022-09-18T09:40:09.909Z,6060.00
2022-09-18T09:41:10.027Z,5080.00
2022-09-18T09:42:10.291Z,4876.00
2022-09-18T09:43:10.545Z,4808.00
2022-09-18T09:44:10.813Z,5060.00
2022-09-18T09:45:11.086Z,6728.00
2022-09-18T09:46:12.837Z,6644.00
2022-09-18T09:47:11.760Z,7012.00
2022-09-18T09:48:11.923Z,7316.00
2022-09-18T09:49:12.185Z,6220.00
2022-09-18T09:50:12.446Z,7296.00
2022-09-18T09:51:12.708Z,8528.00
2022-09-18T09:52:13.009Z,7880.00
2022-09-18T09:53:13.256Z,8084.00
2022-09-18T09:54:13.528Z,8392.00
2022-09-18T09:55:13.802Z,7664.00
2022-09-18T09:56:14.996Z,6832.00
2022-09-18T09:57:14.308Z,6172.00
2022-09-18T09:58:14.560Z,4336.00
2022-09-18T09:59:14.819Z,3008.00
2022-09-18T10:00:15.138Z,3556.00
2022-09-18T10:01:15.462Z,5536.00
2022-09-18T10:02:15.755Z,6812.00
2022-09-18T10:03:15.908Z,8440.00
2022-09-18T10:04:16.161Z,9320.00
2022-09-18T10:05:16.410Z,8744.00
2022-09-18T10:06:16.656Z,7412.00
2022-09-18T10:07:16.908Z,7388.00
2022-09-18T10:08:17.164Z,7708.00
2022-09-18T10:09:17.423Z,7676.00
2022-09-18T10:10:17.692Z,7476.00
2022-09-18T10:11:17.941Z,6212.00
2022-09-18T10:12:18.214Z,5032.00
2022-09-18T10:13:18.499Z,4728.00
2022-09-18T10:14:18.757Z,4404.00
2022-09-18T10:15:19.056Z,3560.00
2022-09-18T10:16:19.396Z,3264.00
2022-09-18T10:17:19.534Z,5280.00
2022-09-18T10:18:19.805Z,5796.00
2022-09-18T10:19:20.065Z,6228.00
2022-09-18T10:20:20.317Z,6136.00
2022-09-18T10:21:20.595Z,4792.00
2022-09-18T10:22:20.850Z,4000.00
2022-09-18T10:23:21.145Z,5328.00
2022-09-18T10:24:21.402Z,6456.00
2022-09-18T10:25:22.607Z,5632.00
2022-09-18T10:26:21.932Z,6780.00
2022-09-18T10:27:22.207Z,7744.00
2022-09-18T10:28:22.464Z,7980.00
2022-09-18T10:29:22.717Z,7688.00
2022-09-18T10:30:22.974Z,6404.00
2022-09-18T10:31:23.354Z,5328.00
2022-09-18T10:32:23.442Z,5464.00
2022-09-18T10:33:23.721Z,6144.00
2022-09-18T10:34:23.996Z,5808.00
2022-09-18T10:35:24.260Z,5064.00
2022-09-18T10:36:24.509Z,5892.00
2022-09-18T10:37:24.889Z,6596.00
2022-09-18T10:38:25.020Z,6264.00
2022-09-18T10:39:29.266Z,5184.00
2022-09-18T10:40:26.702Z,4652.00
2022-09-18T10:41:25.858Z,4204.00
2022-09-18T10:42:26.113Z,3896.00
2022-09-18T10:43:26.406Z,4288.00
2022-09-18T10:44:26.662Z,5856.00
2022-09-18T10:45:26.995Z,6736.00
2022-09-18T10:46:27.290Z,6924.00
2022-09-18T10:47:27.564Z,6548.00
2022-09-18T10:48:28.809Z,5616.00
2022-09-18T10:49:28.109Z,5692.00
2022-09-18T10:50:31.324Z,5700.00
2022-09-18T10:51:29.688Z,4644.00
2022-09-18T10:52:28.995Z,3772.00
2022-09-18T10:53:29.266Z,3260.00
2022-09-18T10:54:29.518Z,2876.00
2022-09-18T10:55:29.769Z,2608.00
2022-09-18T10:56:30.951Z,2452.00
2022-09-18T10:57:30.265Z,2296.00
2022-09-18T10:58:30.518Z,2208.00
2022-09-18T10:59:30.919Z,2156.00
2022-09-18T11:00:31.025Z,2164.00
2022-09-18T11:01:31.310Z,2136.00
2022-09-18T11:02:31.701Z,2144.00
2022-09-18T11:03:32.391Z,2192.00
2022-09-18T11:04:32.217Z,2276.00
2022-09-18T11:05:32.487Z,3004.00
2022-09-18T11:06:32.761Z,2948.00
2022-09-18T11:07:33.024Z,2592.00
2022-09-18T11:08:33.294Z,2400.00
2022-09-18T11:09:33.551Z,3548.00
2022-09-18T11:10:33.804Z,4292.00
2022-09-18T11:11:34.063Z,4572.00
2022-09-18T11:12:34.314Z,5724.00
2022-09-18T11:13:34.582Z,5608.00
2022-09-18T11:14:34.823Z,5848.00
2022-09-18T11:15:35.067Z,6468.00
2022-09-18T11:16:35.348Z,6360.00
2022-09-18T11:17:35.637Z,5060.00
2022-09-18T11:18:35.890Z,3912.00
2022-09-18T11:19:36.148Z,3196.00
2022-09-18T11:20:36.406Z,2988.00
2022-09-18T11:21:36.657Z,2688.00
2022-09-18T11:22:36.907Z,2516.00
2022-09-18T11:23:37.180Z,2444.00
2022-09-18T11:24:37.432Z,2412.00
2022-09-18T11:25:37.694Z,2328.00
2022-09-18T11:26:37.952Z,2256.00
2022-09-18T11:27:38.197Z,2276.00
2022-09-18T11:28:38.467Z,2316.00
2022-09-18T11:29:38.849Z,2268.00
2022-09-18T11:30:39.012Z,2256.00
2022-09-18T11:31:39.339Z,2248.00
2022-09-18T11:32:39.581Z,2260.00
2022-09-18T11:33:39.883Z,2308.00
2022-09-18T11:34:40.238Z,2312.00
2022-09-18T11:35:40.402Z,2280.00
2022-09-18T11:36:40.652Z,2256.00
2022-09-18T11:37:40.912Z,2244.00
2022-09-18T11:38:41.153Z,2252.00
2022-09-18T11:39:41.401Z,2272.00
2022-09-18T11:40:41.751Z,2488.00
2022-09-18T11:41:42.045Z,3608.00
2022-09-18T11:42:42.372Z,5332.00
2022-09-18T11:43:42.545Z,6560.00
2022-09-18T11:44:43.054Z,6244.00
2022-09-18T11:45:43.176Z,6204.00
2022-09-18T11:46:43.716Z,7000.00
2022-09-18T11:47:43.846Z,6708.00
2022-09-18T11:48:44.173Z,5732.00
2022-09-18T11:49:44.597Z,4508.00
2022-09-18T11:50:44.749Z,3532.00
2022-09-18T11:51:45.056Z,2976.00
2022-09-18T11:52:45.551Z,2896.00
2022-09-18T11:53:45.709Z,3400.00
2022-09-18T11:54:45.867Z,4324.00
2022-09-18T11:55:46.209Z,5048.00
2022-09-18T11:56:46.351Z,5380.00
2022-09-18T11:57:46.620Z,5620.00
2022-09-18T11:58:46.879Z,5872.00
2022-09-18T11:59:47.143Z,6356.00
2022-09-18T12:00:47.411Z,6696.00
2022-09-18T12:01:47.756Z,6268.00
2022-09-18T12:02:48.116Z,5340.00
2022-09-18T12:03:48.361Z,4352.00
2022-09-18T12:04:48.812Z,3764.00
2022-09-18T12:05:48.872Z,3320.00
2022-09-18T12:06:49.129Z,2932.00
2022-09-18T12:07:48.039Z,2744.00
2022-09-18T12:08:48.279Z,2424.00
2022-09-18T12:09:48.526Z,2236.00
2022-09-18T12:10:48.844Z,2052.00
2022-09-18T12:11:49.165Z,1956.00
2022-09-18T12:12:49.442Z,1844.00
2022-09-18T12:13:49.705Z,1768.00
2022-09-18T12:14:49.996Z,1736.00
2022-09-18T12:15:50.234Z,1736.00
2022-09-18T12:16:50.508Z,1780.00
2022-09-18T12:17:50.761Z,1928.00
2022-09-18T12:18:51.028Z,2144.00
2022-09-18T12:19:51.371Z,2384.00
2022-09-18T12:20:51.601Z,2548.00
2022-09-18T12:21:51.859Z,2548.00
2022-09-18T12:22:52.152Z,2484.00
2022-09-18T12:23:52.407Z,2420.00
2022-09-18T12:24:52.657Z,2612.00
2022-09-18T12:25:52.949Z,2476.00
2022-09-18T12:26:53.205Z,2572.00
2022-09-18T12:27:53.929Z,2960.00
2022-09-18T12:28:53.746Z,3468.00
2022-09-18T12:29:54.014Z,3844.00
2022-09-18T12:30:54.346Z,3940.00
2022-09-18T12:31:54.684Z,4668.00
2022-09-18T12:32:54.973Z,6420.00
2022-09-18T12:33:55.249Z,8368.00
2022-09-18T12:34:55.493Z,8676.00
2022-09-18T12:35:55.776Z,8772.00
2022-09-18T12:36:56.015Z,8432.00